sensor_id;sensor_type;location;lat;lon;timestamp;P1;durP1;ratioP1;P2;durP2;ratioP2
3643;SDS011;1838;50.742;7.158;2023-12-29T00:00:50;3.50;;;1.10;;
3643;SDS011;1838;50.742;7.158;2023-12-29T00:03:16;3.07;;;1.57;;
3643;SDS011;1838;50.742;7.158;2023-12-29T00:05:41;2.00;;;1.27;;
3643;SDS011;1838;50.742;7.158;2023-12-29T00:08:07;1.60;;;1.10;;
3643;SDS011;1838;50.742;7.158;2023-12-29T00:10:32;3.10;;;1.30;;
3643;SDS011;1838;50.742;7.158;2023-12-29T00:12:59;4.70;;;1.27;;
3643;SDS011;1838;50.742;7.158;2023-12-29T00:15:24;4.27;;;2.30;;
3643;SDS011;1838;50.742;7.158;2023-12-29T00:17:50;2.17;;;1.17;;
3643;SDS011;1838;50.742;7.158;2023-12-29T00:20:17;2.43;;;1.30;;
3643;SDS011;1838;50.742;7.158;2023-12-29T00:22:43;4.23;;;1.93;;
3643;SDS011;1838;50.742;7.158;2023-12-29T00:25:08;3.63;;;1.20;;
3643;SDS011;1838;50.742;7.158;2023-12-29T00:27:35;4.77;;;1.50;;
3643;SDS011;1838;50.742;7.158;2023-12-29T00:30:01;6.50;;;1.70;;
3643;SDS011;1838;50.742;7.158;2023-12-29T00:32:27;3.17;;;1.50;;
3643;SDS011;1838;50.742;7.158;2023-12-29T00:34:53;2.00;;;1.10;;
3643;SDS011;1838;50.742;7.158;2023-12-29T00:37:18;4.93;;;1.30;;
3643;SDS011;1838;50.742;7.158;2023-12-29T00:39:44;5.80;;;1.43;;
3643;SDS011;1838;50.742;7.158;2023-12-29T00:42:09;3.60;;;1.20;;
3643;SDS011;1838;50.742;7.158;2023-12-29T00:44:35;2.07;;;1.53;;
3643;SDS011;1838;50.742;7.158;2023-12-29T00:47:00;8.37;;;1.83;;
3643;SDS011;1838;50.742;7.158;2023-12-29T00:49:26;3.10;;;1.70;;
3643;SDS011;1838;50.742;7.158;2023-12-29T00:51:51;2.80;;;1.30;;
3643;SDS011;1838;50.742;7.158;2023-12-29T00:54:18;4.23;;;1.57;;
3643;SDS011;1838;50.742;7.158;2023-12-29T00:56:50;5.20;;;1.73;;
3643;SDS011;1838;50.742;7.158;2023-12-29T00:59:17;4.60;;;1.90;;
3643;SDS011;1838;50.742;7.158;2023-12-29T01:01:45;5.90;;;1.70;;
3643;SDS011;1838;50.742;7.158;2023-12-29T01:04:10;4.70;;;2.10;;
3643;SDS011;1838;50.742;7.158;2023-12-29T01:06:36;4.17;;;1.77;;
3643;SDS011;1838;50.742;7.158;2023-12-29T01:09:01;2.20;;;1.40;;
3643;SDS011;1838;50.742;7.158;2023-12-29T01:11:27;2.20;;;1.70;;
3643;SDS011;1838;50.742;7.158;2023-12-29T01:13:52;2.10;;;1.30;;
3643;SDS011;1838;50.742;7.158;2023-12-29T01:16:18;2.27;;;1.30;;
3643;SDS011;1838;50.742;7.158;2023-12-29T01:18:43;3.10;;;1.57;;
3643;SDS011;1838;50.742;7.158;2023-12-29T01:21:09;4.83;;;1.90;;
3643;SDS011;1838;50.742;7.158;2023-12-29T01:23:34;4.03;;;1.97;;
3643;SDS011;1838;50.742;7.158;2023-12-29T01:26:00;5.50;;;1.87;;
3643;SDS011;1838;50.742;7.158;2023-12-29T01:28:25;4.20;;;1.50;;
3643;SDS011;1838;50.742;7.158;2023-12-29T01:30:51;7.03;;;2.30;;
3643;SDS011;1838;50.742;7.158;2023-12-29T01:33:16;5.40;;;1.73;;
3643;SDS011;1838;50.742;7.158;2023-12-29T01:35:42;6.40;;;1.73;;
3643;SDS011;1838;50.742;7.158;2023-12-29T01:38:07;3.60;;;1.77;;
3643;SDS011;1838;50.742;7.158;2023-12-29T01:40:41;4.97;;;1.73;;
3643;SDS011;1838;50.742;7.158;2023-12-29T01:43:10;5.00;;;1.77;;
3643;SDS011;1838;50.742;7.158;2023-12-29T01:45:36;4.07;;;1.80;;
3643;SDS011;1838;50.742;7.158;2023-12-29T01:48:02;5.13;;;1.73;;
3643;SDS011;1838;50.742;7.158;2023-12-29T01:50:27;5.30;;;1.80;;
3643;SDS011;1838;50.742;7.158;2023-12-29T01:52:54;3.87;;;2.00;;
3643;SDS011;1838;50.742;7.158;2023-12-29T01:55:21;4.23;;;1.90;;
3643;SDS011;1838;50.742;7.158;2023-12-29T01:57:49;1.93;;;1.50;;
3643;SDS011;1838;50.742;7.158;2023-12-29T02:00:16;2.80;;;1.70;;
3643;SDS011;1838;50.742;7.158;2023-12-29T02:02:43;6.77;;;1.60;;
3643;SDS011;1838;50.742;7.158;2023-12-29T02:05:12;4.80;;;1.53;;
3643;SDS011;1838;50.742;7.158;2023-12-29T02:07:40;2.83;;;1.70;;
3643;SDS011;1838;50.742;7.158;2023-12-29T02:10:06;6.43;;;2.70;;
3643;SDS011;1838;50.742;7.158;2023-12-29T02:12:32;5.15;;;2.03;;
3643;SDS011;1838;50.742;7.158;2023-12-29T02:15:00;5.07;;;1.80;;
3643;SDS011;1838;50.742;7.158;2023-12-29T02:17:26;7.70;;;2.53;;
3643;SDS011;1838;50.742;7.158;2023-12-29T02:19:56;5.33;;;2.23;;
3643;SDS011;1838;50.742;7.158;2023-12-29T02:22:22;3.40;;;1.70;;
3643;SDS011;1838;50.742;7.158;2023-12-29T02:24:51;4.63;;;1.53;;
3643;SDS011;1838;50.742;7.158;2023-12-29T02:27:25;5.33;;;1.70;;
3643;SDS011;1838;50.742;7.158;2023-12-29T02:33:05;3.17;;;1.40;;
3643;SDS011;1838;50.742;7.158;2023-12-29T02:35:33;4.40;;;1.60;;
3643;SDS011;1838;50.742;7.158;2023-12-29T02:38:02;7.90;;;1.90;;
3643;SDS011;1838;50.742;7.158;2023-12-29T02:40:28;6.57;;;1.70;;
3643;SDS011;1838;50.742;7.158;2023-12-29T02:42:54;6.33;;;1.87;;
3643;SDS011;1838;50.742;7.158;2023-12-29T02:45:20;2.90;;;1.47;;
3643;SDS011;1838;50.742;7.158;2023-12-29T02:47:45;7.23;;;1.93;;
3643;SDS011;1838;50.742;7.158;2023-12-29T02:50:12;9.33;;;2.33;;
3643;SDS011;1838;50.742;7.158;2023-12-29T02:52:37;4.70;;;1.43;;
3643;SDS011;1838;50.742;7.158;2023-12-29T02:55:03;5.83;;;2.10;;
3643;SDS011;1838;50.742;7.158;2023-12-29T02:57:29;2.07;;;1.40;;
3643;SDS011;1838;50.742;7.158;2023-12-29T02:59:55;5.03;;;1.60;;
3643;SDS011;1838;50.742;7.158;2023-12-29T03:02:20;3.97;;;1.47;;
3643;SDS011;1838;50.742;7.158;2023-12-29T03:04:46;7.37;;;1.67;;
3643;SDS011;1838;50.742;7.158;2023-12-29T03:07:12;8.00;;;1.50;;
3643;SDS011;1838;50.742;7.158;2023-12-29T03:09:37;8.40;;;2.10;;
3643;SDS011;1838;50.742;7.158;2023-12-29T03:12:03;8.10;;;1.93;;
3643;SDS011;1838;50.742;7.158;2023-12-29T03:14:29;6.40;;;2.03;;
3643;SDS011;1838;50.742;7.158;2023-12-29T03:16:54;5.70;;;1.70;;
3643;SDS011;1838;50.742;7.158;2023-12-29T03:19:20;4.67;;;2.00;;
3643;SDS011;1838;50.742;7.158;2023-12-29T03:21:45;5.20;;;1.37;;
3643;SDS011;1838;50.742;7.158;2023-12-29T03:24:11;2.87;;;1.57;;
3643;SDS011;1838;50.742;7.158;2023-12-29T03:26:36;4.60;;;1.70;;
3643;SDS011;1838;50.742;7.158;2023-12-29T03:29:02;4.40;;;1.47;;
3643;SDS011;1838;50.742;7.158;2023-12-29T03:31:27;8.30;;;2.00;;
3643;SDS011;1838;50.742;7.158;2023-12-29T03:33:53;4.30;;;2.00;;
3643;SDS011;1838;50.742;7.158;2023-12-29T03:36:18;5.90;;;1.60;;
3643;SDS011;1838;50.742;7.158;2023-12-29T03:38:44;3.80;;;1.50;;
3643;SDS011;1838;50.742;7.158;2023-12-29T03:41:09;2.90;;;1.57;;
3643;SDS011;1838;50.742;7.158;2023-12-29T03:43:35;5.90;;;1.43;;
3643;SDS011;1838;50.742;7.158;2023-12-29T03:46:00;2.50;;;1.50;;
3643;SDS011;1838;50.742;7.158;2023-12-29T03:48:26;6.90;;;1.53;;
3643;SDS011;1838;50.742;7.158;2023-12-29T03:50:51;3.30;;;1.50;;
3643;SDS011;1838;50.742;7.158;2023-12-29T03:53:17;2.17;;;1.30;;
3643;SDS011;1838;50.742;7.158;2023-12-29T03:55:44;6.63;;;2.93;;
3643;SDS011;1838;50.742;7.158;2023-12-29T03:58:10;4.27;;;1.73;;
3643;SDS011;1838;50.742;7.158;2023-12-29T04:00:36;6.67;;;1.77;;
3643;SDS011;1838;50.742;7.158;2023-12-29T04:03:01;5.70;;;1.40;;
3643;SDS011;1838;50.742;7.158;2023-12-29T04:05:27;8.70;;;1.50;;
3643;SDS011;1838;50.742;7.158;2023-12-29T04:07:52;14.63;;;1.80;;
3643;SDS011;1838;50.742;7.158;2023-12-29T04:10:18;6.57;;;1.83;;
3643;SDS011;1838;50.742;7.158;2023-12-29T04:12:43;6.43;;;1.40;;
3643;SDS011;1838;50.742;7.158;2023-12-29T04:15:09;2.90;;;1.37;;
3643;SDS011;1838;50.742;7.158;2023-12-29T04:17:35;5.83;;;1.60;;
3643;SDS011;1838;50.742;7.158;2023-12-29T04:20:01;8.70;;;1.77;;
3643;SDS011;1838;50.742;7.158;2023-12-29T04:22:26;5.27;;;1.63;;
3643;SDS011;1838;50.742;7.158;2023-12-29T04:24:51;3.40;;;1.33;;
3643;SDS011;1838;50.742;7.158;2023-12-29T04:27:17;6.13;;;1.53;;
3643;SDS011;1838;50.742;7.158;2023-12-29T04:29:43;8.73;;;1.50;;
3643;SDS011;1838;50.742;7.158;2023-12-29T04:32:10;7.60;;;1.40;;
3643;SDS011;1838;50.742;7.158;2023-12-29T04:34:35;5.80;;;1.20;;
3643;SDS011;1838;50.742;7.158;2023-12-29T04:37:01;7.00;;;1.50;;
3643;SDS011;1838;50.742;7.158;2023-12-29T04:39:26;5.97;;;2.03;;
3643;SDS011;1838;50.742;7.158;2023-12-29T04:41:52;2.50;;;1.30;;
3643;SDS011;1838;50.742;7.158;2023-12-29T04:44:17;4.57;;;1.27;;
3643;SDS011;1838;50.742;7.158;2023-12-29T04:46:43;5.93;;;1.53;;
3643;SDS011;1838;50.742;7.158;2023-12-29T04:49:09;4.70;;;1.47;;
3643;SDS011;1838;50.742;7.158;2023-12-29T04:51:34;6.77;;;1.40;;
3643;SDS011;1838;50.742;7.158;2023-12-29T04:54:00;6.63;;;1.37;;
3643;SDS011;1838;50.742;7.158;2023-12-29T04:56:25;5.77;;;1.47;;
3643;SDS011;1838;50.742;7.158;2023-12-29T04:58:51;7.13;;;1.73;;
3643;SDS011;1838;50.742;7.158;2023-12-29T05:01:17;5.30;;;1.40;;
3643;SDS011;1838;50.742;7.158;2023-12-29T05:03:42;13.60;;;1.63;;
3643;SDS011;1838;50.742;7.158;2023-12-29T05:06:08;4.17;;;1.60;;
3643;SDS011;1838;50.742;7.158;2023-12-29T05:08:33;3.90;;;1.20;;
3643;SDS011;1838;50.742;7.158;2023-12-29T05:10:59;4.40;;;1.50;;
3643;SDS011;1838;50.742;7.158;2023-12-29T05:13:25;9.47;;;1.77;;
3643;SDS011;1838;50.742;7.158;2023-12-29T05:15:50;3.90;;;1.27;;
3643;SDS011;1838;50.742;7.158;2023-12-29T05:18:16;3.50;;;1.30;;
3643;SDS011;1838;50.742;7.158;2023-12-29T05:20:41;4.67;;;1.33;;
3643;SDS011;1838;50.742;7.158;2023-12-29T05:23:08;4.50;;;1.47;;
3643;SDS011;1838;50.742;7.158;2023-12-29T05:25:33;8.80;;;1.73;;
3643;SDS011;1838;50.742;7.158;2023-12-29T05:27:59;5.40;;;1.57;;
3643;SDS011;1838;50.742;7.158;2023-12-29T05:30:24;12.53;;;1.70;;
3643;SDS011;1838;50.742;7.158;2023-12-29T05:32:51;6.57;;;1.40;;
3643;SDS011;1838;50.742;7.158;2023-12-29T05:35:17;3.57;;;1.40;;
3643;SDS011;1838;50.742;7.158;2023-12-29T05:37:42;8.40;;;1.53;;
3643;SDS011;1838;50.742;7.158;2023-12-29T05:40:08;1.87;;;1.00;;
3643;SDS011;1838;50.742;7.158;2023-12-29T05:42:33;6.97;;;1.43;;
3643;SDS011;1838;50.742;7.158;2023-12-29T05:44:59;9.50;;;1.23;;
3643;SDS011;1838;50.742;7.158;2023-12-29T05:47:24;4.67;;;1.47;;
3643;SDS011;1838;50.742;7.158;2023-12-29T05:49:50;6.40;;;2.37;;
3643;SDS011;1838;50.742;7.158;2023-12-29T05:52:15;6.63;;;1.43;;
3643;SDS011;1838;50.742;7.158;2023-12-29T05:54:41;7.60;;;1.97;;
3643;SDS011;1838;50.742;7.158;2023-12-29T05:57:06;1.97;;;1.20;;
3643;SDS011;1838;50.742;7.158;2023-12-29T05:59:32;6.47;;;1.33;;
3643;SDS011;1838;50.742;7.158;2023-12-29T06:01:57;12.70;;;1.47;;
3643;SDS011;1838;50.742;7.158;2023-12-29T06:04:23;6.30;;;1.30;;
3643;SDS011;1838;50.742;7.158;2023-12-29T06:06:48;2.20;;;1.30;;
3643;SDS011;1838;50.742;7.158;2023-12-29T06:09:14;3.60;;;1.90;;
3643;SDS011;1838;50.742;7.158;2023-12-29T06:11:39;3.10;;;1.13;;
3643;SDS011;1838;50.742;7.158;2023-12-29T06:14:05;5.50;;;1.10;;
3643;SDS011;1838;50.742;7.158;2023-12-29T06:16:31;2.87;;;0.90;;
3643;SDS011;1838;50.742;7.158;2023-12-29T06:18:56;4.13;;;0.90;;
3643;SDS011;1838;50.742;7.158;2023-12-29T06:21:22;5.17;;;1.37;;
3643;SDS011;1838;50.742;7.158;2023-12-29T06:23:48;6.20;;;1.20;;
3643;SDS011;1838;50.742;7.158;2023-12-29T06:26:16;4.73;;;1.07;;
3643;SDS011;1838;50.742;7.158;2023-12-29T06:28:43;4.00;;;1.27;;
3643;SDS011;1838;50.742;7.158;2023-12-29T06:31:09;2.95;;;1.45;;
3643;SDS011;1838;50.742;7.158;2023-12-29T06:33:35;5.90;;;2.50;;
3643;SDS011;1838;50.742;7.158;2023-12-29T06:36:00;2.87;;;1.37;;
3643;SDS011;1838;50.742;7.158;2023-12-29T06:38:26;3.60;;;1.13;;
3643;SDS011;1838;50.742;7.158;2023-12-29T06:40:51;2.13;;;1.10;;
3643;SDS011;1838;50.742;7.158;2023-12-29T06:43:17;5.40;;;1.13;;
3643;SDS011;1838;50.742;7.158;2023-12-29T06:45:42;1.93;;;0.93;;
3643;SDS011;1838;50.742;7.158;2023-12-29T06:48:08;4.50;;;1.43;;
3643;SDS011;1838;50.742;7.158;2023-12-29T06:50:33;2.47;;;1.10;;
3643;SDS011;1838;50.742;7.158;2023-12-29T06:52:59;3.50;;;1.10;;
3643;SDS011;1838;50.742;7.158;2023-12-29T06:55:24;2.90;;;0.87;;
3643;SDS011;1838;50.742;7.158;2023-12-29T06:57:50;6.87;;;1.67;;
3643;SDS011;1838;50.742;7.158;2023-12-29T07:00:16;2.47;;;1.10;;
3643;SDS011;1838;50.742;7.158;2023-12-29T07:02:42;3.70;;;1.23;;
3643;SDS011;1838;50.742;7.158;2023-12-29T07:05:07;4.00;;;1.27;;
3643;SDS011;1838;50.742;7.158;2023-12-29T07:07:34;3.47;;;1.10;;
3643;SDS011;1838;50.742;7.158;2023-12-29T07:10:00;2.90;;;0.90;;
3643;SDS011;1838;50.742;7.158;2023-12-29T07:12:26;2.03;;;1.08;;
3643;SDS011;1838;50.742;7.158;2023-12-29T07:14:51;2.50;;;1.10;;
3643;SDS011;1838;50.742;7.158;2023-12-29T07:17:17;2.53;;;0.93;;
3643;SDS011;1838;50.742;7.158;2023-12-29T07:19:42;3.10;;;1.00;;
3643;SDS011;1838;50.742;7.158;2023-12-29T07:22:08;2.90;;;1.10;;
3643;SDS011;1838;50.742;7.158;2023-12-29T07:24:34;3.20;;;1.10;;
3643;SDS011;1838;50.742;7.158;2023-12-29T07:27:00;3.90;;;1.37;;
3643;SDS011;1838;50.742;7.158;2023-12-29T07:29:26;2.07;;;0.90;;
3643;SDS011;1838;50.742;7.158;2023-12-29T07:31:51;3.40;;;1.10;;
3643;SDS011;1838;50.742;7.158;2023-12-29T07:34:17;3.40;;;1.10;;
3643;SDS011;1838;50.742;7.158;2023-12-29T07:36:43;3.00;;;1.30;;
3643;SDS011;1838;50.742;7.158;2023-12-29T07:39:08;3.20;;;0.97;;
3643;SDS011;1838;50.742;7.158;2023-12-29T07:41:38;2.10;;;0.90;;
3643;SDS011;1838;50.742;7.158;2023-12-29T07:44:05;3.30;;;0.93;;
3643;SDS011;1838;50.742;7.158;2023-12-29T07:46:31;5.30;;;1.40;;
3643;SDS011;1838;50.742;7.158;2023-12-29T07:48:57;7.40;;;1.20;;
3643;SDS011;1838;50.742;7.158;2023-12-29T07:51:22;4.57;;;1.50;;
3643;SDS011;1838;50.742;7.158;2023-12-29T07:53:48;3.67;;;1.00;;
3643;SDS011;1838;50.742;7.158;2023-12-29T07:56:14;4.33;;;1.10;;
3643;SDS011;1838;50.742;7.158;2023-12-29T07:58:39;4.57;;;1.43;;
3643;SDS011;1838;50.742;7.158;2023-12-29T08:01:05;5.47;;;1.20;;
3643;SDS011;1838;50.742;7.158;2023-12-29T08:03:30;3.23;;;1.10;;
3643;SDS011;1838;50.742;7.158;2023-12-29T08:05:55;2.23;;;0.70;;
3643;SDS011;1838;50.742;7.158;2023-12-29T08:08:21;3.63;;;1.10;;
3643;SDS011;1838;50.742;7.158;2023-12-29T08:10:47;3.90;;;1.00;;
3643;SDS011;1838;50.742;7.158;2023-12-29T08:13:12;5.97;;;0.90;;
3643;SDS011;1838;50.742;7.158;2023-12-29T08:15:38;4.37;;;1.30;;
3643;SDS011;1838;50.742;7.158;2023-12-29T08:18:04;2.90;;;1.00;;
3643;SDS011;1838;50.742;7.158;2023-12-29T08:20:31;2.33;;;0.80;;
3643;SDS011;1838;50.742;7.158;2023-12-29T08:22:56;3.60;;;1.20;;
3643;SDS011;1838;50.742;7.158;2023-12-29T08:25:22;3.07;;;1.10;;
3643;SDS011;1838;50.742;7.158;2023-12-29T08:27:48;4.23;;;1.10;;
3643;SDS011;1838;50.742;7.158;2023-12-29T08:30:13;2.27;;;1.10;;
3643;SDS011;1838;50.742;7.158;2023-12-29T08:32:39;3.87;;;1.03;;
3643;SDS011;1838;50.742;7.158;2023-12-29T08:35:04;2.57;;;1.00;;
3643;SDS011;1838;50.742;7.158;2023-12-29T08:37:31;3.60;;;0.90;;
3643;SDS011;1838;50.742;7.158;2023-12-29T08:39:58;1.73;;;0.90;;
3643;SDS011;1838;50.742;7.158;2023-12-29T08:42:24;2.17;;;0.83;;
3643;SDS011;1838;50.742;7.158;2023-12-29T08:44:49;4.80;;;0.90;;
3643;SDS011;1838;50.742;7.158;2023-12-29T08:47:15;4.23;;;1.10;;
3643;SDS011;1838;50.742;7.158;2023-12-29T08:49:40;8.63;;;1.17;;
3643;SDS011;1838;50.742;7.158;2023-12-29T08:52:06;2.10;;;0.83;;
3643;SDS011;1838;50.742;7.158;2023-12-29T08:54:33;4.00;;;1.43;;
3643;SDS011;1838;50.742;7.158;2023-12-29T08:56:59;2.77;;;1.00;;
3643;SDS011;1838;50.742;7.158;2023-12-29T08:59:24;2.60;;;0.97;;
3643;SDS011;1838;50.742;7.158;2023-12-29T09:01:50;3.17;;;0.70;;
3643;SDS011;1838;50.742;7.158;2023-12-29T09:04:15;5.10;;;1.40;;
3643;SDS011;1838;50.742;7.158;2023-12-29T09:06:41;2.90;;;1.23;;
3643;SDS011;1838;50.742;7.158;2023-12-29T09:09:07;2.53;;;1.23;;
3643;SDS011;1838;50.742;7.158;2023-12-29T09:11:37;2.70;;;0.93;;
3643;SDS011;1838;50.742;7.158;2023-12-29T09:14:03;4.33;;;1.40;;
3643;SDS011;1838;50.742;7.158;2023-12-29T09:16:29;2.27;;;1.00;;
3643;SDS011;1838;50.742;7.158;2023-12-29T09:18:55;1.50;;;0.67;;
3643;SDS011;1838;50.742;7.158;2023-12-29T09:21:20;2.73;;;0.80;;
3643;SDS011;1838;50.742;7.158;2023-12-29T09:23:46;1.60;;;0.90;;
3643;SDS011;1838;50.742;7.158;2023-12-29T09:26:12;2.27;;;0.63;;
3643;SDS011;1838;50.742;7.158;2023-12-29T09:28:37;6.20;;;1.03;;
3643;SDS011;1838;50.742;7.158;2023-12-29T09:31:06;2.70;;;0.87;;
3643;SDS011;1838;50.742;7.158;2023-12-29T09:33:32;1.50;;;0.70;;
3643;SDS011;1838;50.742;7.158;2023-12-29T09:35:57;3.33;;;1.20;;
3643;SDS011;1838;50.742;7.158;2023-12-29T09:38:23;3.40;;;0.90;;
3643;SDS011;1838;50.742;7.158;2023-12-29T09:40:48;1.97;;;0.67;;
3643;SDS011;1838;50.742;7.158;2023-12-29T09:43:15;3.00;;;0.80;;
3643;SDS011;1838;50.742;7.158;2023-12-29T09:45:41;2.67;;;0.70;;
3643;SDS011;1838;50.742;7.158;2023-12-29T09:48:09;1.60;;;0.70;;
3643;SDS011;1838;50.742;7.158;2023-12-29T09:50:37;1.43;;;0.60;;
3643;SDS011;1838;50.742;7.158;2023-12-29T09:53:02;1.47;;;0.60;;
3643;SDS011;1838;50.742;7.158;2023-12-29T09:55:29;1.37;;;0.67;;
3643;SDS011;1838;50.742;7.158;2023-12-29T09:57:56;3.53;;;0.70;;
3643;SDS011;1838;50.742;7.158;2023-12-29T10:00:24;1.90;;;0.70;;
3643;SDS011;1838;50.742;7.158;2023-12-29T10:02:51;1.83;;;0.67;;
3643;SDS011;1838;50.742;7.158;2023-12-29T10:05:19;1.30;;;0.60;;
3643;SDS011;1838;50.742;7.158;2023-12-29T10:07:45;2.70;;;0.70;;
3643;SDS011;1838;50.742;7.158;2023-12-29T10:10:14;1.30;;;0.50;;
3643;SDS011;1838;50.742;7.158;2023-12-29T10:12:43;1.67;;;0.70;;
3643;SDS011;1838;50.742;7.158;2023-12-29T10:15:14;1.50;;;0.60;;
3643;SDS011;1838;50.742;7.158;2023-12-29T10:23:41;1.70;;;0.60;;
3643;SDS011;1838;50.742;7.158;2023-12-29T10:26:12;3.27;;;0.70;;
3643;SDS011;1838;50.742;7.158;2023-12-29T10:28:38;1.83;;;0.60;;
3643;SDS011;1838;50.742;7.158;2023-12-29T10:31:04;1.97;;;0.60;;
3643;SDS011;1838;50.742;7.158;2023-12-29T10:33:30;1.80;;;0.70;;
3643;SDS011;1838;50.742;7.158;2023-12-29T10:36:01;1.60;;;0.70;;
3643;SDS011;1838;50.742;7.158;2023-12-29T10:38:28;2.20;;;0.67;;
3643;SDS011;1838;50.742;7.158;2023-12-29T10:40:54;2.37;;;0.60;;
3643;SDS011;1838;50.742;7.158;2023-12-29T10:43:34;3.20;;;0.60;;
3643;SDS011;1838;50.742;7.158;2023-12-29T10:46:06;2.33;;;0.57;;
3643;SDS011;1838;50.742;7.158;2023-12-29T10:48:36;3.93;;;0.63;;
3643;SDS011;1838;50.742;7.158;2023-12-29T10:51:03;1.43;;;0.53;;
3643;SDS011;1838;50.742;7.158;2023-12-29T10:53:29;2.57;;;0.67;;
3643;SDS011;1838;50.742;7.158;2023-12-29T10:55:56;1.57;;;0.80;;
3643;SDS011;1838;50.742;7.158;2023-12-29T10:58:23;3.05;;;0.60;;
3643;SDS011;1838;50.742;7.158;2023-12-29T11:00:57;2.20;;;1.00;;
3643;SDS011;1838;50.742;7.158;2023-12-29T11:03:23;1.30;;;0.60;;
3643;SDS011;1838;50.742;7.158;2023-12-29T11:05:50;1.97;;;0.60;;
3643;SDS011;1838;50.742;7.158;2023-12-29T11:08:23;1.20;;;0.60;;
3643;SDS011;1838;50.742;7.158;2023-12-29T11:10:49;3.30;;;0.70;;
3643;SDS011;1838;50.742;7.158;2023-12-29T11:13:15;1.73;;;0.50;;
3643;SDS011;1838;50.742;7.158;2023-12-29T11:15:41;2.33;;;0.70;;
3643;SDS011;1838;50.742;7.158;2023-12-29T11:18:14;2.23;;;0.70;;
3643;SDS011;1838;50.742;7.158;2023-12-29T11:20:41;1.40;;;1.07;;
3643;SDS011;1838;50.742;7.158;2023-12-29T11:23:10;3.00;;;0.60;;
3643;SDS011;1838;50.742;7.158;2023-12-29T11:25:39;1.50;;;0.53;;
3643;SDS011;1838;50.742;7.158;2023-12-29T11:28:10;1.20;;;0.50;;
3643;SDS011;1838;50.742;7.158;2023-12-29T11:30:38;1.27;;;0.50;;
3643;SDS011;1838;50.742;7.158;2023-12-29T11:35:59;2.87;;;0.70;;
3643;SDS011;1838;50.742;7.158;2023-12-29T11:40:59;2.00;;;0.63;;
3643;SDS011;1838;50.742;7.158;2023-12-29T11:43:35;1.40;;;0.60;;
3643;SDS011;1838;50.742;7.158;2023-12-29T11:46:01;1.43;;;0.60;;
3643;SDS011;1838;50.742;7.158;2023-12-29T11:51:29;1.50;;;0.50;;
3643;SDS011;1838;50.742;7.158;2023-12-29T11:53:58;2.70;;;0.60;;
3643;SDS011;1838;50.742;7.158;2023-12-29T11:56:24;1.30;;;0.50;;
3643;SDS011;1838;50.742;7.158;2023-12-29T11:58:54;2.23;;;0.60;;
3643;SDS011;1838;50.742;7.158;2023-12-29T12:01:33;1.60;;;0.70;;
3643;SDS011;1838;50.742;7.158;2023-12-29T12:04:00;1.40;;;0.50;;
3643;SDS011;1838;50.742;7.158;2023-12-29T12:06:39;1.40;;;0.50;;
3643;SDS011;1838;50.742;7.158;2023-12-29T12:09:21;1.20;;;0.50;;
3643;SDS011;1838;50.742;7.158;2023-12-29T12:11:50;1.60;;;0.50;;
3643;SDS011;1838;50.742;7.158;2023-12-29T12:17:10;1.43;;;0.60;;
3643;SDS011;1838;50.742;7.158;2023-12-29T12:19:36;1.40;;;0.60;;
3643;SDS011;1838;50.742;7.158;2023-12-29T12:22:01;1.30;;;0.50;;
3643;SDS011;1838;50.742;7.158;2023-12-29T12:24:27;1.83;;;0.50;;
3643;SDS011;1838;50.742;7.158;2023-12-29T12:26:54;1.40;;;0.60;;
3643;SDS011;1838;50.742;7.158;2023-12-29T12:29:20;1.80;;;0.73;;
3643;SDS011;1838;50.742;7.158;2023-12-29T12:31:53;1.20;;;0.50;;
3643;SDS011;1838;50.742;7.158;2023-12-29T12:34:18;1.30;;;0.50;;
3643;SDS011;1838;50.742;7.158;2023-12-29T12:36:50;2.20;;;0.60;;
3643;SDS011;1838;50.742;7.158;2023-12-29T12:39:17;2.50;;;0.50;;
3643;SDS011;1838;50.742;7.158;2023-12-29T12:41:43;1.40;;;0.50;;
3643;SDS011;1838;50.742;7.158;2023-12-29T12:44:12;1.23;;;0.50;;
3643;SDS011;1838;50.742;7.158;2023-12-29T12:46:49;1.20;;;0.50;;
3643;SDS011;1838;50.742;7.158;2023-12-29T12:49:19;1.20;;;0.50;;
3643;SDS011;1838;50.742;7.158;2023-12-29T12:51:45;1.30;;;0.50;;
3643;SDS011;1838;50.742;7.158;2023-12-29T12:54:11;1.30;;;0.57;;
3643;SDS011;1838;50.742;7.158;2023-12-29T12:56:42;1.30;;;0.50;;
3643;SDS011;1838;50.742;7.158;2023-12-29T12:59:08;1.30;;;0.50;;
3643;SDS011;1838;50.742;7.158;2023-12-29T13:01:34;1.80;;;0.70;;
3643;SDS011;1838;50.742;7.158;2023-12-29T13:04:01;3.57;;;0.50;;
3643;SDS011;1838;50.742;7.158;2023-12-29T13:06:29;3.73;;;0.50;;
3643;SDS011;1838;50.742;7.158;2023-12-29T13:09:00;1.43;;;0.57;;
3643;SDS011;1838;50.742;7.158;2023-12-29T13:11:31;1.83;;;0.70;;
3643;SDS011;1838;50.742;7.158;2023-12-29T13:13:57;1.10;;;0.40;;
3643;SDS011;1838;50.742;7.158;2023-12-29T13:16:32;2.37;;;0.50;;
3643;SDS011;1838;50.742;7.158;2023-12-29T13:19:14;1.20;;;0.50;;
3643;SDS011;1838;50.742;7.158;2023-12-29T13:21:48;2.57;;;0.70;;
3643;SDS011;1838;50.742;7.158;2023-12-29T13:24:15;1.30;;;0.50;;
3643;SDS011;1838;50.742;7.158;2023-12-29T13:26:41;1.60;;;0.50;;
3643;SDS011;1838;50.742;7.158;2023-12-29T13:29:09;1.20;;;0.50;;
3643;SDS011;1838;50.742;7.158;2023-12-29T13:31:34;1.63;;;0.60;;
3643;SDS011;1838;50.742;7.158;2023-12-29T13:34:02;1.43;;;0.60;;
3643;SDS011;1838;50.742;7.158;2023-12-29T13:39:28;1.30;;;0.50;;
3643;SDS011;1838;50.742;7.158;2023-12-29T13:42:01;1.20;;;0.50;;
3643;SDS011;1838;50.742;7.158;2023-12-29T13:44:29;1.67;;;0.60;;
3643;SDS011;1838;50.742;7.158;2023-12-29T13:46:57;1.60;;;0.50;;
3643;SDS011;1838;50.742;7.158;2023-12-29T13:49:23;1.40;;;0.50;;
3643;SDS011;1838;50.742;7.158;2023-12-29T13:51:48;1.20;;;0.50;;
3643;SDS011;1838;50.742;7.158;2023-12-29T13:54:14;1.30;;;0.60;;
3643;SDS011;1838;50.742;7.158;2023-12-29T13:56:50;1.20;;;0.50;;
3643;SDS011;1838;50.742;7.158;2023-12-29T13:59:19;1.40;;;0.60;;
3643;SDS011;1838;50.742;7.158;2023-12-29T14:01:53;1.60;;;0.50;;
3643;SDS011;1838;50.742;7.158;2023-12-29T14:04:19;1.50;;;0.60;;
3643;SDS011;1838;50.742;7.158;2023-12-29T14:06:58;1.83;;;0.60;;
3643;SDS011;1838;50.742;7.158;2023-12-29T14:09:26;1.50;;;0.50;;
3643;SDS011;1838;50.742;7.158;2023-12-29T14:11:51;1.30;;;0.60;;
3643;SDS011;1838;50.742;7.158;2023-12-29T14:14:21;1.53;;;0.70;;
3643;SDS011;1838;50.742;7.158;2023-12-29T14:16:49;1.40;;;0.70;;
3643;SDS011;1838;50.742;7.158;2023-12-29T14:19:15;2.27;;;0.50;;
3643;SDS011;1838;50.742;7.158;2023-12-29T14:21:41;1.50;;;0.70;;
3643;SDS011;1838;50.742;7.158;2023-12-29T14:24:14;1.83;;;0.60;;
3643;SDS011;1838;50.742;7.158;2023-12-29T14:26:41;1.30;;;0.60;;
3643;SDS011;1838;50.742;7.158;2023-12-29T14:29:11;1.20;;;0.50;;
3643;SDS011;1838;50.742;7.158;2023-12-29T14:31:41;1.20;;;0.50;;
3643;SDS011;1838;50.742;7.158;2023-12-29T14:34:08;1.60;;;0.60;;
3643;SDS011;1838;50.742;7.158;2023-12-29T14:36:34;1.20;;;0.50;;
3643;SDS011;1838;50.742;7.158;2023-12-29T14:39:00;1.30;;;0.60;;
3643;SDS011;1838;50.742;7.158;2023-12-29T14:41:27;1.30;;;0.70;;
3643;SDS011;1838;50.742;7.158;2023-12-29T14:43:53;1.20;;;0.50;;
3643;SDS011;1838;50.742;7.158;2023-12-29T14:46:19;1.40;;;0.60;;
3643;SDS011;1838;50.742;7.158;2023-12-29T14:48:45;1.40;;;0.73;;
3643;SDS011;1838;50.742;7.158;2023-12-29T14:51:11;4.50;;;0.90;;
3643;SDS011;1838;50.742;7.158;2023-12-29T14:53:37;3.60;;;0.80;;
3643;SDS011;1838;50.742;7.158;2023-12-29T14:56:03;1.97;;;1.07;;
3643;SDS011;1838;50.742;7.158;2023-12-29T14:58:29;1.67;;;1.00;;
3643;SDS011;1838;50.742;7.158;2023-12-29T15:00:56;1.63;;;0.93;;
3643;SDS011;1838;50.742;7.158;2023-12-29T15:03:22;1.50;;;0.63;;
3643;SDS011;1838;50.742;7.158;2023-12-29T15:05:48;1.80;;;0.63;;
3643;SDS011;1838;50.742;7.158;2023-12-29T15:08:14;4.70;;;0.70;;
3643;SDS011;1838;50.742;7.158;2023-12-29T15:10:40;1.70;;;0.60;;
3643;SDS011;1838;50.742;7.158;2023-12-29T15:13:05;1.33;;;0.60;;
3643;SDS011;1838;50.742;7.158;2023-12-29T15:15:32;1.50;;;0.50;;
3643;SDS011;1838;50.742;7.158;2023-12-29T15:17:58;1.40;;;0.70;;
3643;SDS011;1838;50.742;7.158;2023-12-29T15:20:24;1.20;;;0.60;;
3643;SDS011;1838;50.742;7.158;2023-12-29T15:22:50;1.30;;;0.60;;
3643;SDS011;1838;50.742;7.158;2023-12-29T15:25:15;1.40;;;0.50;;
3643;SDS011;1838;50.742;7.158;2023-12-29T15:27:41;1.30;;;0.50;;
3643;SDS011;1838;50.742;7.158;2023-12-29T15:30:07;1.87;;;0.80;;
3643;SDS011;1838;50.742;7.158;2023-12-29T15:32:33;1.70;;;0.60;;
3643;SDS011;1838;50.742;7.158;2023-12-29T15:34:58;1.40;;;0.73;;